Rabbs, Texas
Current Conditions -  °F | °C
As of 9:15 AM on Sunday 21 Dec 2014 (Local Time) from K66R Reporting Station
Overcast Overcast  
Wind Chill: 51°   Ceiling: 800
Heat Index: 51°   Visibility: 7mi
Dew Point: 49°   Wind: 3mph
Humidity: 91%   Direction: 80°E
Pressure: 30.12"   Gusts: NA
Location:  29.3984°N, 96.8256°W
Report Text: K66R 211515Z AUTO 08003KT 7SM BKN008 OVC019 11/09 A3012 RMK AO2 T01080094
Loading
Personal Weather Stations






























Interactive Weather Map New forecast layout! Learn more

10-Day Weather Forecast

Advertisements
Track Severe Weather on mobile